Clipper Imabari — 3ERD7 — position and weather

sailwx.info

Track history (hours):
 
Tides and Currents Weather Stations Pressure Air Temp Water Temp Dewpoint Dewpoint Depression Visibility Wind Speed Wind Dir Waves Ship Positions

Clipper Imabari

Last reported at 2016-Jan-28 21:21 UTC. Time now 2016-Feb-13 06:52 UTC.
Position N 35°57' W 005°44'.
Warning: this ship's position is 15 days out of date.

Length 169 m; draft 7.2 m.

Type: Ship. MMSI: 370016000.

Date/timePositionNaut miles runAvg speedWind from/ knotsBaromVisibWave heightAir tempDewpointWater temp
2016-Jan-28 21:21N 35°57' W 005°44'911.2
2016-Jan-28 20:34N 35°59' W 005°33'1110.6
2016-Jan-28 19:34N 36°05' W 005°22'3 2.7
2016-Jan-28 18:32N 36°07' W 005°22'0 0.0
2016-Jan-28 17:32N 36°07' W 005°22'0 0.0
2016-Jan-28 16:32N 36°07' W 005°22'0 0.1
2016-Jan-28 15:32N 36°07' W 005°22'0 0.1
2016-Jan-28 14:32N 36°08' W 005°22'0 0.2
2016-Jan-28 13:32N 36°08' W 005°22'0 0.0
2016-Jan-28 12:26N 36°08' W 005°22'0 0.2
2016-Jan-28 11:29N 36°07' W 005°22'0 0.0
2016-Jan-28 09:29N 36°07' W 005°22'0 0.1
2016-Jan-28 08:32N 36°07' W 005°22'0 0.1
2016-Jan-28 07:26N 36°07' W 005°22'2 1.8
2016-Jan-28 06:33N 36°06' W 005°22'4 4.2
2016-Jan-28 05:34N 36°03' W 005°18'10 9.8
2016-Jan-28 04:30N 36°05' W 005°05'10511.6
2016-Jan-27 19:26N 36°19' W 002°56'2311.9
2016-Jan-27 17:30N 36°23' W 002°28'1111.2
2016-Jan-27 16:29N 36°25' W 002°14'7412.3
2016-Jan-27 10:26N 37°08' W 000°58'1112.8
2016-Jan-27 09:33N 37°15' W 000°47'1412.8
2016-Jan-27 08:28N 37°24' W 000°34'1112.5
2016-Jan-27 07:33N 37°31' W 000°22'1313.1
2016-Jan-27 06:33N 37°41' W 000°11'11312.6
2016-Jan-26 21:33N 39°16' E 001°07'1312.8
2016-Jan-26 20:33N 39°26' E 001°17'1612.4
2016-Jan-26 19:17N 39°39' E 001°28'911.9
2016-Jan-26 18:33N 39°46' E 001°35'2411.9
2016-Jan-26 16:33N 40°05' E 001°54'1212.4
2016-Jan-26 15:33N 40°15' E 002°03'1212.3
2016-Jan-26 14:33N 40°25' E 002°12'1212.4
2016-Jan-26 13:33N 40°35' E 002°22'1212.4
2016-Jan-26 12:33N 40°45' E 002°32'1212.3
2016-Jan-26 11:33N 40°54' E 002°42'1312.5
2016-Jan-26 10:33N 41°04' E 002°52'1312.7
2016-Jan-26 09:33N 41°15' E 003°02'5112.6
2016-Jan-26 05:30N 41°55' E 003°43'1212.9
2016-Jan-26 04:32N 42°05' E 003°53'1413.3
2016-Jan-26 03:31N 42°16' E 004°04'1212.8
2016-Jan-26 02:33N 42°26' E 004°14'3812.6
2016-Jan-25 23:33N 42°56' E 004°45'1312.9
2016-Jan-25 22:33N 43°07' E 004°56'1111.4
2016-Jan-25 21:33N 43°18' E 004°59'8 8.2
2016-Jan-25 20:33N 43°24' E 004°52'1 0.6
2016-Jan-25 19:32N 43°24' E 004°51'0 0.0
2016-Jan-25 18:32N 43°24' E 004°51'0 0.0
2016-Jan-25 17:32N 43°24' E 004°51'0 0.0
2016-Jan-25 16:32N 43°24' E 004°51'0 0.0
2016-Jan-25 15:32N 43°24' E 004°51'0 0.0
2016-Jan-25 14:32N 43°24' E 004°51'0 0.0
2016-Jan-25 13:32N 43°24' E 004°51'0 0.0
2016-Jan-25 12:32N 43°24' E 004°51'0 0.0
2016-Jan-25 11:32N 43°24' E 004°51'0 0.0
2016-Jan-25 10:32N 43°24' E 004°51'0 0.0
2016-Jan-25 09:32N 43°24' E 004°51'0 0.0
2016-Jan-25 08:32N 43°24' E 004°51'0 0.0
2016-Jan-25 07:32N 43°24' E 004°51'0 0.0
2016-Jan-25 06:32N 43°24' E 004°51'0 0.0
2016-Jan-25 05:32N 43°24' E 004°51'0 0.0
2016-Jan-25 04:32N 43°24' E 004°51'0 0.0
2016-Jan-25 03:32N 43°24' E 004°51'0 0.0
2016-Jan-25 02:32N 43°24' E 004°51'0 0.0
2016-Jan-25 01:32N 43°24' E 004°51'0 0.0
2016-Jan-25 00:32N 43°24' E 004°51'0 0.0
2016-Jan-24 23:32N 43°24' E 004°51'0 0.0
2016-Jan-24 22:29N 43°24' E 004°51'0 0.0
2016-Jan-24 21:32N 43°24' E 004°51'0 0.0
2016-Jan-24 20:32N 43°24' E 004°51'0 0.0
2016-Jan-24 19:32N 43°24' E 004°51'0 0.0
2016-Jan-24 18:32N 43°24' E 004°51'0 0.0
2016-Jan-24 17:32N 43°24' E 004°51'0 0.0
2016-Jan-24 16:32N 43°24' E 004°51'0 0.0
2016-Jan-24 15:32N 43°24' E 004°51'0 0.0
2016-Jan-24 14:32N 43°24' E 004°51'0 0.0
2016-Jan-24 13:32N 43°24' E 004°51'0 0.0
2016-Jan-24 12:32N 43°24' E 004°51'0 0.0
2016-Jan-24 11:32N 43°24' E 004°51'0 0.0
2016-Jan-24 10:32N 43°24' E 004°51'0 0.0
2016-Jan-24 09:32N 43°24' E 004°51'0 0.0
2016-Jan-24 08:32N 43°24' E 004°51'0 0.0
2016-Jan-24 07:32N 43°24' E 004°51'0 0.0
2016-Jan-24 06:32N 43°24' E 004°51'0 0.0
2016-Jan-24 05:32N 43°24' E 004°51'0 0.0
2016-Jan-24 04:32N 43°24' E 004°51'0 0.0
2016-Jan-24 03:32N 43°24' E 004°51'0 0.0
2016-Jan-24 02:32N 43°24' E 004°51'0 0.0
2016-Jan-24 01:29N 43°24' E 004°51'0 0.0
2016-Jan-24 00:32N 43°24' E 004°51'0 0.0
2016-Jan-23 23:32N 43°24' E 004°51'0 0.0
2016-Jan-23 22:32N 43°24' E 004°51'0 0.0
2016-Jan-23 21:32N 43°24' E 004°51'0 0.0
2016-Jan-23 20:32N 43°24' E 004°51'0 0.0
2016-Jan-23 19:32N 43°24' E 004°51'0 0.0
2016-Jan-23 18:32N 43°24' E 004°51'0 0.0
2016-Jan-23 17:32N 43°24' E 004°51'0 0.0
2016-Jan-23 16:32N 43°24' E 004°51'0 0.0
2016-Jan-23 15:32N 43°24' E 004°51'0 0.0
2016-Jan-23 14:32N 43°24' E 004°51'0 0.0
2016-Jan-23 13:32N 43°24' E 004°51'0 0.0
2016-Jan-23 12:32N 43°24' E 004°51'0 0.0
2016-Jan-23 11:32N 43°24' E 004°51'0 0.0
2016-Jan-23 10:32N 43°24' E 004°51'0 0.0
2016-Jan-23 09:32N 43°24' E 004°51'0 0.0
2016-Jan-23 08:32N 43°24' E 004°51'0 0.0
2016-Jan-23 07:32N 43°24' E 004°51'0 0.0
2016-Jan-23 06:32N 43°24' E 004°51'0 0.0
2016-Jan-23 05:32N 43°24' E 004°51'0 0.0
2016-Jan-23 04:32N 43°24' E 004°51'0 0.0
2016-Jan-23 03:29N 43°24' E 004°51'0 0.0
2016-Jan-23 02:32N 43°24' E 004°51'0 0.0
2016-Jan-23 01:32N 43°24' E 004°51'0 0.0
2016-Jan-23 00:32N 43°24' E 004°51'0 0.0
2016-Jan-22 23:32N 43°24' E 004°51'0 0.0
2016-Jan-22 22:32N 43°24' E 004°51'0 0.0
2016-Jan-22 21:32N 43°24' E 004°51'0 0.0
2016-Jan-22 20:32N 43°24' E 004°51'0 0.0
2016-Jan-22 19:32N 43°24' E 004°51'0 0.0
2016-Jan-22 18:32N 43°24' E 004°51'0 0.0
2016-Jan-22 17:32N 43°24' E 004°51'0 0.0
2016-Jan-22 16:32N 43°24' E 004°51'0 0.0
2016-Jan-22 15:32N 43°24' E 004°51'0 0.0
2016-Jan-22 14:32N 43°24' E 004°51'0 0.0
2016-Jan-22 13:29N 43°24' E 004°51'0 0.0
2016-Jan-22 12:32N 43°24' E 004°51'0 0.0
2016-Jan-22 11:32N 43°24' E 004°51'0 0.0
2016-Jan-22 10:23N 43°24' E 004°51'0 0.0
2016-Jan-22 09:32N 43°24' E 004°51'0 0.0
2016-Jan-22 08:32N 43°24' E 004°51'0 0.0
2016-Jan-22 07:32N 43°24' E 004°51'0 0.0
2016-Jan-22 06:32N 43°24' E 004°51'0 0.0
2016-Jan-22 05:32N 43°24' E 004°51'0 0.0
2016-Jan-22 04:32N 43°24' E 004°51'0 0.0
2016-Jan-22 03:32N 43°24' E 004°51'0 0.0
2016-Jan-22 02:32N 43°24' E 004°51'0 0.0
2016-Jan-22 01:32N 43°24' E 004°51'0 0.0
2016-Jan-22 00:32N 43°24' E 004°51'0 0.0
2016-Jan-21 23:32N 43°24' E 004°51'0 0.0
2016-Jan-21 22:32N 43°24' E 004°51'0 0.0
2016-Jan-21 21:32N 43°24' E 004°51'0 0.0
2016-Jan-21 20:32N 43°24' E 004°51'0 0.0
2016-Jan-21 19:32N 43°24' E 004°51'0 0.0
2016-Jan-21 18:32N 43°24' E 004°51'0 0.0
2016-Jan-21 17:32N 43°24' E 004°51'2 1.7
2016-Jan-21 16:34N 43°24' E 004°53'2 1.9
2016-Jan-21 15:33N 43°24' E 004°56'0 0.0
2016-Jan-21 14:33N 43°24' E 004°55'0 0.0
2016-Jan-21 13:33N 43°24' E 004°56'0 0.0
2016-Jan-21 12:33N 43°24' E 004°55'0 0.0
2016-Jan-21 11:33N 43°24' E 004°55'0 0.0
2016-Jan-21 10:33N 43°24' E 004°55'0 0.0
2016-Jan-21 09:33N 43°24' E 004°55'0 0.0
2016-Jan-21 08:33N 43°24' E 004°55'0 0.0
2016-Jan-21 07:33N 43°24' E 004°55'0 0.0
2016-Jan-21 06:33N 43°24' E 004°55'0 0.0
2016-Jan-21 05:33N 43°24' E 004°55'0 0.0
2016-Jan-21 04:33N 43°24' E 004°55'0 0.0
2016-Jan-21 03:30N 43°24' E 004°55'0 0.0
2016-Jan-21 02:30N 43°24' E 004°55'0 0.0
2016-Jan-21 01:33N 43°24' E 004°55'0 0.0
2016-Jan-21 00:33N 43°24' E 004°55'0 0.0
2016-Jan-20 23:33N 43°24' E 004°55'0 0.0
2016-Jan-20 22:33N 43°24' E 004°55'0 0.0
2016-Jan-20 21:33N 43°24' E 004°56'0 0.0
2016-Jan-20 20:33N 43°24' E 004°56'0 0.0
2016-Jan-20 19:33N 43°24' E 004°55'0 0.0
2016-Jan-20 18:33N 43°24' E 004°55'0 0.0
2016-Jan-20 17:33N 43°24' E 004°56'0 0.0
2016-Jan-20 16:33N 43°24' E 004°55'0 0.0
2016-Jan-20 15:33N 43°24' E 004°55'0 0.1
2016-Jan-20 14:33N 43°24' E 004°56'0 0.1
2016-Jan-20 13:33N 43°25' E 004°55'0 0.1
2016-Jan-20 12:33N 43°25' E 004°55'0 0.1
2016-Jan-20 11:33N 43°24' E 004°55'0 0.0
2016-Jan-20 10:33N 43°24' E 004°55'0 0.0
2016-Jan-20 09:33N 43°24' E 004°55'0 0.1
2016-Jan-20 08:33N 43°24' E 004°55'0 0.0
2016-Jan-20 07:33N 43°24' E 004°55'0 0.1
2016-Jan-20 06:33N 43°25' E 004°55'0 0.0
2016-Jan-20 05:33N 43°25' E 004°55'0 0.0
2016-Jan-20 04:33N 43°25' E 004°55'0 0.0
2016-Jan-20 03:33N 43°25' E 004°55'0 0.0
2016-Jan-20 02:33N 43°25' E 004°55'0 0.0
2016-Jan-20 01:33N 43°25' E 004°55'0 0.0
2016-Jan-20 00:33N 43°24' E 004°55'0 0.0
2016-Jan-19 23:33N 43°24' E 004°55'0 0.0
2016-Jan-19 22:33N 43°24' E 004°55'0 0.0
2016-Jan-19 21:33N 43°24' E 004°55'0 0.2
2016-Jan-19 20:33N 43°24' E 004°56'0 0.0
2016-Jan-19 19:33N 43°24' E 004°56'0 0.0
2016-Jan-19 18:33N 43°25' E 004°56'0 0.0
2016-Jan-19 17:33N 43°24' E 004°56'0 0.0
2016-Jan-19 16:33N 43°25' E 004°56'0 0.0
2016-Jan-19 15:33N 43°24' E 004°56'0 0.1
2016-Jan-19 14:33N 43°25' E 004°56'0 0.1
2016-Jan-19 13:33N 43°25' E 004°55'0 0.1
2016-Jan-19 12:33N 43°25' E 004°55'0 0.0
2016-Jan-19 11:33N 43°25' E 004°55'0 0.0
2016-Jan-19 10:33N 43°25' E 004°55'0 0.1
2016-Jan-19 09:33N 43°24' E 004°55'0 0.0
2016-Jan-19 08:33N 43°24' E 004°55'0 0.0
2016-Jan-19 07:33N 43°24' E 004°55'0 0.0
2016-Jan-19 06:33N 43°24' E 004°55'0 0.0
2016-Jan-19 05:33N 43°24' E 004°55'0 0.0
2016-Jan-19 04:33N 43°24' E 004°55'0 0.0
2016-Jan-19 03:33N 43°24' E 004°55'0 0.0
2016-Jan-19 02:33N 43°24' E 004°55'0 0.0
2016-Jan-19 01:33N 43°24' E 004°55'0 0.0
2016-Jan-19 00:33N 43°24' E 004°55'0 0.0
2016-Jan-18 23:33N 43°24' E 004°55'0 0.0
2016-Jan-18 22:33N 43°24' E 004°55'0 0.0
2016-Jan-18 21:33N 43°24' E 004°55'  
Track history (hours):
 
Tides and Currents Weather Stations Pressure Air Temp Water Temp Dewpoint Dewpoint Depression Visibility Wind Speed Wind Dir Waves Ship Positions

Clipper Imabari

Last reported at 2016-Jan-28 21:21 UTC. Time now 2016-Feb-13 06:52 UTC.
Position N 35°57' W 005°44'.
Warning: this ship's position is 15 days out of date.

Length 169 m; draft 7.2 m.

Type: Ship. MMSI: 370016000.

Date/timePositionNaut miles runAvg speedWind from/ knotsBaromVisibWave heightAir tempDewpointWater temp
2016-Jan-28 21:21N 35°57' W 005°44'911.2
2016-Jan-28 20:34N 35°59' W 005°33'1110.6
2016-Jan-28 19:34N 36°05' W 005°22'3 2.7
2016-Jan-28 18:32N 36°07' W 005°22'0 0.0
2016-Jan-28 17:32N 36°07' W 005°22'0 0.0
2016-Jan-28 16:32N 36°07' W 005°22'0 0.1
2016-Jan-28 15:32N 36°07' W 005°22'0 0.1
2016-Jan-28 14:32N 36°08' W 005°22'0 0.2
2016-Jan-28 13:32N 36°08' W 005°22'0 0.0
2016-Jan-28 12:26N 36°08' W 005°22'0 0.2
2016-Jan-28 11:29N 36°07' W 005°22'0 0.0
2016-Jan-28 09:29N 36°07' W 005°22'0 0.1
2016-Jan-28 08:32N 36°07' W 005°22'0 0.1
2016-Jan-28 07:26N 36°07' W 005°22'2 1.8
2016-Jan-28 06:33N 36°06' W 005°22'4 4.2
2016-Jan-28 05:34N 36°03' W 005°18'10 9.8
2016-Jan-28 04:30N 36°05' W 005°05'10511.6
2016-Jan-27 19:26N 36°19' W 002°56'2311.9
2016-Jan-27 17:30N 36°23' W 002°28'1111.2
2016-Jan-27 16:29N 36°25' W 002°14'7412.3
2016-Jan-27 10:26N 37°08' W 000°58'1112.8
2016-Jan-27 09:33N 37°15' W 000°47'1412.8
2016-Jan-27 08:28N 37°24' W 000°34'1112.5
2016-Jan-27 07:33N 37°31' W 000°22'1313.1
2016-Jan-27 06:33N 37°41' W 000°11'11312.6
2016-Jan-26 21:33N 39°16' E 001°07'1312.8
2016-Jan-26 20:33N 39°26' E 001°17'1612.4
2016-Jan-26 19:17N 39°39' E 001°28'911.9
2016-Jan-26 18:33N 39°46' E 001°35'2411.9
2016-Jan-26 16:33N 40°05' E 001°54'1212.4
2016-Jan-26 15:33N 40°15' E 002°03'1212.3
2016-Jan-26 14:33N 40°25' E 002°12'1212.4
2016-Jan-26 13:33N 40°35' E 002°22'1212.4
2016-Jan-26 12:33N 40°45' E 002°32'1212.3
2016-Jan-26 11:33N 40°54' E 002°42'1312.5
2016-Jan-26 10:33N 41°04' E 002°52'1312.7
2016-Jan-26 09:33N 41°15' E 003°02'5112.6
2016-Jan-26 05:30N 41°55' E 003°43'1212.9
2016-Jan-26 04:32N 42°05' E 003°53'1413.3
2016-Jan-26 03:31N 42°16' E 004°04'1212.8
2016-Jan-26 02:33N 42°26' E 004°14'3812.6
2016-Jan-25 23:33N 42°56' E 004°45'1312.9
2016-Jan-25 22:33N 43°07' E 004°56'1111.4
2016-Jan-25 21:33N 43°18' E 004°59'8 8.2
2016-Jan-25 20:33N 43°24' E 004°52'1 0.6
2016-Jan-25 19:32N 43°24' E 004°51'0 0.0
2016-Jan-25 18:32N 43°24' E 004°51'0 0.0
2016-Jan-25 17:32N 43°24' E 004°51'0 0.0
2016-Jan-25 16:32N 43°24' E 004°51'0 0.0
2016-Jan-25 15:32N 43°24' E 004°51'0 0.0
2016-Jan-25 14:32N 43°24' E 004°51'0 0.0
2016-Jan-25 13:32N 43°24' E 004°51'0 0.0
2016-Jan-25 12:32N 43°24' E 004°51'0 0.0
2016-Jan-25 11:32N 43°24' E 004°51'0 0.0
2016-Jan-25 10:32N 43°24' E 004°51'0 0.0
2016-Jan-25 09:32N 43°24' E 004°51'0 0.0
2016-Jan-25 08:32N 43°24' E 004°51'0 0.0
2016-Jan-25 07:32N 43°24' E 004°51'0 0.0
2016-Jan-25 06:32N 43°24' E 004°51'0 0.0
2016-Jan-25 05:32N 43°24' E 004°51'0 0.0
2016-Jan-25 04:32N 43°24' E 004°51'0 0.0
2016-Jan-25 03:32N 43°24' E 004°51'0 0.0
2016-Jan-25 02:32N 43°24' E 004°51'0 0.0
2016-Jan-25 01:32N 43°24' E 004°51'0 0.0
2016-Jan-25 00:32N 43°24' E 004°51'0 0.0
2016-Jan-24 23:32N 43°24' E 004°51'0 0.0
2016-Jan-24 22:29N 43°24' E 004°51'0 0.0
2016-Jan-24 21:32N 43°24' E 004°51'0 0.0
2016-Jan-24 20:32N 43°24' E 004°51'0 0.0
2016-Jan-24 19:32N 43°24' E 004°51'0 0.0
2016-Jan-24 18:32N 43°24' E 004°51'0 0.0
2016-Jan-24 17:32N 43°24' E 004°51'0 0.0
2016-Jan-24 16:32N 43°24' E 004°51'0 0.0
2016-Jan-24 15:32N 43°24' E 004°51'0 0.0
2016-Jan-24 14:32N 43°24' E 004°51'0 0.0
2016-Jan-24 13:32N 43°24' E 004°51'0 0.0
2016-Jan-24 12:32N 43°24' E 004°51'0 0.0
2016-Jan-24 11:32N 43°24' E 004°51'0 0.0
2016-Jan-24 10:32N 43°24' E 004°51'0 0.0
2016-Jan-24 09:32N 43°24' E 004°51'0 0.0
2016-Jan-24 08:32N 43°24' E 004°51'0 0.0
2016-Jan-24 07:32N 43°24' E 004°51'0 0.0
2016-Jan-24 06:32N 43°24' E 004°51'0 0.0
2016-Jan-24 05:32N 43°24' E 004°51'0 0.0
2016-Jan-24 04:32N 43°24' E 004°51'0 0.0
2016-Jan-24 03:32N 43°24' E 004°51'0 0.0
2016-Jan-24 02:32N 43°24' E 004°51'0 0.0
2016-Jan-24 01:29N 43°24' E 004°51'0 0.0
2016-Jan-24 00:32N 43°24' E 004°51'0 0.0
2016-Jan-23 23:32N 43°24' E 004°51'0 0.0
2016-Jan-23 22:32N 43°24' E 004°51'0 0.0
2016-Jan-23 21:32N 43°24' E 004°51'0 0.0
2016-Jan-23 20:32N 43°24' E 004°51'0 0.0
2016-Jan-23 19:32N 43°24' E 004°51'0 0.0
2016-Jan-23 18:32N 43°24' E 004°51'0 0.0
2016-Jan-23 17:32N 43°24' E 004°51'0 0.0
2016-Jan-23 16:32N 43°24' E 004°51'0 0.0
2016-Jan-23 15:32N 43°24' E 004°51'0 0.0
2016-Jan-23 14:32N 43°24' E 004°51'0 0.0
2016-Jan-23 13:32N 43°24' E 004°51'0 0.0
2016-Jan-23 12:32N 43°24' E 004°51'0 0.0
2016-Jan-23 11:32N 43°24' E 004°51'0 0.0
2016-Jan-23 10:32N 43°24' E 004°51'0 0.0
2016-Jan-23 09:32N 43°24' E 004°51'0 0.0
2016-Jan-23 08:32N 43°24' E 004°51'0 0.0
2016-Jan-23 07:32N 43°24' E 004°51'0 0.0
2016-Jan-23 06:32N 43°24' E 004°51'0 0.0
2016-Jan-23 05:32N 43°24' E 004°51'0 0.0
2016-Jan-23 04:32N 43°24' E 004°51'0 0.0
2016-Jan-23 03:29N 43°24' E 004°51'0 0.0
2016-Jan-23 02:32N 43°24' E 004°51'0 0.0
2016-Jan-23 01:32N 43°24' E 004°51'0 0.0
2016-Jan-23 00:32N 43°24' E 004°51'0 0.0
2016-Jan-22 23:32N 43°24' E 004°51'0 0.0
2016-Jan-22 22:32N 43°24' E 004°51'0 0.0
2016-Jan-22 21:32N 43°24' E 004°51'0 0.0
2016-Jan-22 20:32N 43°24' E 004°51'0 0.0
2016-Jan-22 19:32N 43°24' E 004°51'0 0.0
2016-Jan-22 18:32N 43°24' E 004°51'0 0.0
2016-Jan-22 17:32N 43°24' E 004°51'0 0.0
2016-Jan-22 16:32N 43°24' E 004°51'0 0.0
2016-Jan-22 15:32N 43°24' E 004°51'0 0.0
2016-Jan-22 14:32N 43°24' E 004°51'0 0.0
2016-Jan-22 13:29N 43°24' E 004°51'0 0.0
2016-Jan-22 12:32N 43°24' E 004°51'0 0.0
2016-Jan-22 11:32N 43°24' E 004°51'0 0.0
2016-Jan-22 10:23N 43°24' E 004°51'0 0.0
2016-Jan-22 09:32N 43°24' E 004°51'0 0.0
2016-Jan-22 08:32N 43°24' E 004°51'0 0.0
2016-Jan-22 07:32N 43°24' E 004°51'0 0.0
2016-Jan-22 06:32N 43°24' E 004°51'0 0.0
2016-Jan-22 05:32N 43°24' E 004°51'0 0.0
2016-Jan-22 04:32N 43°24' E 004°51'0 0.0
2016-Jan-22 03:32N 43°24' E 004°51'0 0.0
2016-Jan-22 02:32N 43°24' E 004°51'0 0.0
2016-Jan-22 01:32N 43°24' E 004°51'0 0.0
2016-Jan-22 00:32N 43°24' E 004°51'0 0.0
2016-Jan-21 23:32N 43°24' E 004°51'0 0.0
2016-Jan-21 22:32N 43°24' E 004°51'0 0.0
2016-Jan-21 21:32N 43°24' E 004°51'0 0.0
2016-Jan-21 20:32N 43°24' E 004°51'0 0.0
2016-Jan-21 19:32N 43°24' E 004°51'0 0.0
2016-Jan-21 18:32N 43°24' E 004°51'0 0.0
2016-Jan-21 17:32N 43°24' E 004°51'2 1.7
2016-Jan-21 16:34N 43°24' E 004°53'2 1.9
2016-Jan-21 15:33N 43°24' E 004°56'0 0.0
2016-Jan-21 14:33N 43°24' E 004°55'0 0.0
2016-Jan-21 13:33N 43°24' E 004°56'0 0.0
2016-Jan-21 12:33N 43°24' E 004°55'0 0.0
2016-Jan-21 11:33N 43°24' E 004°55'0 0.0
2016-Jan-21 10:33N 43°24' E 004°55'0 0.0
2016-Jan-21 09:33N 43°24' E 004°55'0 0.0
2016-Jan-21 08:33N 43°24' E 004°55'0 0.0
2016-Jan-21 07:33N 43°24' E 004°55'0 0.0
2016-Jan-21 06:33N 43°24' E 004°55'0 0.0
2016-Jan-21 05:33N 43°24' E 004°55'0 0.0
2016-Jan-21 04:33N 43°24' E 004°55'0 0.0
2016-Jan-21 03:30N 43°24' E 004°55'0 0.0
2016-Jan-21 02:30N 43°24' E 004°55'0 0.0
2016-Jan-21 01:33N 43°24' E 004°55'0 0.0
2016-Jan-21 00:33N 43°24' E 004°55'0 0.0
2016-Jan-20 23:33N 43°24' E 004°55'0 0.0
2016-Jan-20 22:33N 43°24' E 004°55'0 0.0
2016-Jan-20 21:33N 43°24' E 004°56'0 0.0
2016-Jan-20 20:33N 43°24' E 004°56'0 0.0
2016-Jan-20 19:33N 43°24' E 004°55'0 0.0
2016-Jan-20 18:33N 43°24' E 004°55'0 0.0
2016-Jan-20 17:33N 43°24' E 004°56'0 0.0
2016-Jan-20 16:33N 43°24' E 004°55'0 0.0
2016-Jan-20 15:33N 43°24' E 004°55'0 0.1
2016-Jan-20 14:33N 43°24' E 004°56'0 0.1
2016-Jan-20 13:33N 43°25' E 004°55'0 0.1
2016-Jan-20 12:33N 43°25' E 004°55'0 0.1
2016-Jan-20 11:33N 43°24' E 004°55'0 0.0
2016-Jan-20 10:33N 43°24' E 004°55'0 0.0
2016-Jan-20 09:33N 43°24' E 004°55'0 0.1
2016-Jan-20 08:33N 43°24' E 004°55'0 0.0
2016-Jan-20 07:33N 43°24' E 004°55'0 0.1
2016-Jan-20 06:33N 43°25' E 004°55'0 0.0
2016-Jan-20 05:33N 43°25' E 004°55'0 0.0
2016-Jan-20 04:33N 43°25' E 004°55'0 0.0
2016-Jan-20 03:33N 43°25' E 004°55'0 0.0
2016-Jan-20 02:33N 43°25' E 004°55'0 0.0
2016-Jan-20 01:33N 43°25' E 004°55'0 0.0
2016-Jan-20 00:33N 43°24' E 004°55'0 0.0
2016-Jan-19 23:33N 43°24' E 004°55'0 0.0
2016-Jan-19 22:33N 43°24' E 004°55'0 0.0
2016-Jan-19 21:33N 43°24' E 004°55'0 0.2
2016-Jan-19 20:33N 43°24' E 004°56'0 0.0
2016-Jan-19 19:33N 43°24' E 004°56'0 0.0
2016-Jan-19 18:33N 43°25' E 004°56'0 0.0
2016-Jan-19 17:33N 43°24' E 004°56'0 0.0
2016-Jan-19 16:33N 43°25' E 004°56'0 0.0
2016-Jan-19 15:33N 43°24' E 004°56'0 0.1
2016-Jan-19 14:33N 43°25' E 004°56'0 0.1
2016-Jan-19 13:33N 43°25' E 004°55'0 0.1
2016-Jan-19 12:33N 43°25' E 004°55'0 0.0
2016-Jan-19 11:33N 43°25' E 004°55'0 0.0
2016-Jan-19 10:33N 43°25' E 004°55'0 0.1
2016-Jan-19 09:33N 43°24' E 004°55'0 0.0
2016-Jan-19 08:33N 43°24' E 004°55'0 0.0
2016-Jan-19 07:33N 43°24' E 004°55'0 0.0
2016-Jan-19 06:33N 43°24' E 004°55'0 0.0
2016-Jan-19 05:33N 43°24' E 004°55'0 0.0
2016-Jan-19 04:33N 43°24' E 004°55'0 0.0
2016-Jan-19 03:33N 43°24' E 004°55'0 0.0
2016-Jan-19 02:33N 43°24' E 004°55'0 0.0
2016-Jan-19 01:33N 43°24' E 004°55'0 0.0
2016-Jan-19 00:33N 43°24' E 004°55'0 0.0
2016-Jan-18 23:33N 43°24' E 004°55'0 0.0
2016-Jan-18 22:33N 43°24' E 004°55'0 0.0
2016-Jan-18 21:33N 43°24' E 004°55'  

Dump ship's entire track history